sensor_id;sensor_type;location;lat;lon;timestamp;P1;durP1;ratioP1;P2;durP2;ratioP2
15151;SDS011;7676;50.900;6.234;2022-08-07T00:01:00;1.50;;;1.40;;
15151;SDS011;7676;50.900;6.234;2022-08-07T00:06:23;1.90;;;1.30;;
15151;SDS011;7676;50.900;6.234;2022-08-07T00:11:34;2.10;;;1.30;;
15151;SDS011;7676;50.900;6.234;2022-08-07T00:16:55;2.97;;;1.53;;
15151;SDS011;7676;50.900;6.234;2022-08-07T00:21:59;2.23;;;1.40;;
15151;SDS011;7676;50.900;6.234;2022-08-07T00:27:04;2.43;;;1.20;;
15151;SDS011;7676;50.900;6.234;2022-08-07T00:32:10;1.80;;;1.43;;
15151;SDS011;7676;50.900;6.234;2022-08-07T00:37:15;1.90;;;1.40;;
15151;SDS011;7676;50.900;6.234;2022-08-07T00:42:18;1.97;;;1.53;;
15151;SDS011;7676;50.900;6.234;2022-08-07T00:47:30;2.70;;;1.30;;
15151;SDS011;7676;50.900;6.234;2022-08-07T00:52:52;2.73;;;1.80;;
15151;SDS011;7676;50.900;6.234;2022-08-07T00:57:55;2.50;;;1.63;;
15151;SDS011;7676;50.900;6.234;2022-08-07T01:02:57;1.57;;;1.33;;
15151;SDS011;7676;50.900;6.234;2022-08-07T01:08:00;2.27;;;1.70;;
15151;SDS011;7676;50.900;6.234;2022-08-07T01:13:02;2.07;;;1.70;;
15151;SDS011;7676;50.900;6.234;2022-08-07T01:18:05;2.57;;;1.70;;
15151;SDS011;7676;50.900;6.234;2022-08-07T01:23:11;2.60;;;1.80;;
15151;SDS011;7676;50.900;6.234;2022-08-07T01:28:15;2.17;;;1.80;;
15151;SDS011;7676;50.900;6.234;2022-08-07T01:33:22;2.07;;;1.70;;
15151;SDS011;7676;50.900;6.234;2022-08-07T01:38:32;2.47;;;1.90;;
15151;SDS011;7676;50.900;6.234;2022-08-07T01:43:44;2.80;;;1.80;;
15151;SDS011;7676;50.900;6.234;2022-08-07T01:48:48;2.47;;;1.77;;
15151;SDS011;7676;50.900;6.234;2022-08-07T01:53:57;2.53;;;1.90;;
15151;SDS011;7676;50.900;6.234;2022-08-07T01:59:28;1.70;;;1.60;;
15151;SDS011;7676;50.900;6.234;2022-08-07T02:09:57;3.13;;;1.93;;
15151;SDS011;7676;50.900;6.234;2022-08-07T02:15:02;4.17;;;2.27;;
15151;SDS011;7676;50.900;6.234;2022-08-07T02:20:12;3.00;;;2.20;;
15151;SDS011;7676;50.900;6.234;2022-08-07T02:25:24;3.13;;;1.80;;
15151;SDS011;7676;50.900;6.234;2022-08-07T02:30:49;2.33;;;1.90;;
15151;SDS011;7676;50.900;6.234;2022-08-07T02:35:53;2.53;;;1.90;;
15151;SDS011;7676;50.900;6.234;2022-08-07T02:41:17;2.63;;;2.07;;
15151;SDS011;7676;50.900;6.234;2022-08-07T02:46:24;2.80;;;2.07;;
15151;SDS011;7676;50.900;6.234;2022-08-07T02:51:32;2.53;;;1.97;;
15151;SDS011;7676;50.900;6.234;2022-08-07T02:56:53;3.13;;;2.00;;
15151;SDS011;7676;50.900;6.234;2022-08-07T03:01:59;2.70;;;2.10;;
15151;SDS011;7676;50.900;6.234;2022-08-07T03:07:04;2.43;;;2.17;;
15151;SDS011;7676;50.900;6.234;2022-08-07T03:12:13;3.00;;;2.10;;
15151;SDS011;7676;50.900;6.234;2022-08-07T03:17:27;2.63;;;2.10;;
15151;SDS011;7676;50.900;6.234;2022-08-07T03:22:40;2.47;;;2.23;;
15151;SDS011;7676;50.900;6.234;2022-08-07T03:27:51;3.33;;;2.47;;
15151;SDS011;7676;50.900;6.234;2022-08-07T03:33:10;2.40;;;2.20;;
15151;SDS011;7676;50.900;6.234;2022-08-07T03:38:13;2.87;;;2.43;;
15151;SDS011;7676;50.900;6.234;2022-08-07T03:43:17;3.40;;;2.70;;
15151;SDS011;7676;50.900;6.234;2022-08-07T03:48:25;2.73;;;2.20;;
15151;SDS011;7676;50.900;6.234;2022-08-07T03:53:31;3.27;;;2.43;;
15151;SDS011;7676;50.900;6.234;2022-08-07T03:58:54;3.17;;;2.57;;
15151;SDS011;7676;50.900;6.234;2022-08-07T04:04:14;3.33;;;2.33;;
15151;SDS011;7676;50.900;6.234;2022-08-07T04:09:22;3.77;;;2.77;;
15151;SDS011;7676;50.900;6.234;2022-08-07T04:14:30;3.07;;;2.77;;
15151;SDS011;7676;50.900;6.234;2022-08-07T04:19:45;4.03;;;3.30;;
15151;SDS011;7676;50.900;6.234;2022-08-07T04:24:57;5.80;;;3.00;;
15151;SDS011;7676;50.900;6.234;2022-08-07T04:30:04;3.33;;;3.03;;
15151;SDS011;7676;50.900;6.234;2022-08-07T04:35:33;3.27;;;2.80;;
15151;SDS011;7676;50.900;6.234;2022-08-07T04:40:44;3.47;;;2.87;;
15151;SDS011;7676;50.900;6.234;2022-08-07T04:46:02;3.50;;;2.73;;
15151;SDS011;7676;50.900;6.234;2022-08-07T04:51:39;3.13;;;2.83;;
15151;SDS011;7676;50.900;6.234;2022-08-07T04:57:08;3.50;;;2.57;;
15151;SDS011;7676;50.900;6.234;2022-08-07T05:08:45;3.20;;;2.70;;
15151;SDS011;7676;50.900;6.234;2022-08-07T05:14:10;3.07;;;2.60;;
15151;SDS011;7676;50.900;6.234;2022-08-07T05:19:39;3.33;;;2.60;;
15151;SDS011;7676;50.900;6.234;2022-08-07T05:24:47;2.93;;;2.53;;
15151;SDS011;7676;50.900;6.234;2022-08-07T05:29:52;4.40;;;2.83;;
15151;SDS011;7676;50.900;6.234;2022-08-07T05:34:57;4.00;;;2.63;;
15151;SDS011;7676;50.900;6.234;2022-08-07T05:40:04;3.07;;;2.67;;
15151;SDS011;7676;50.900;6.234;2022-08-07T05:45:21;3.17;;;2.80;;
15151;SDS011;7676;50.900;6.234;2022-08-07T05:50:47;3.10;;;2.77;;
15151;SDS011;7676;50.900;6.234;2022-08-07T05:55:53;3.23;;;2.73;;
15151;SDS011;7676;50.900;6.234;2022-08-07T06:01:06;3.90;;;2.93;;
15151;SDS011;7676;50.900;6.234;2022-08-07T06:06:16;3.50;;;2.87;;
15151;SDS011;7676;50.900;6.234;2022-08-07T06:11:22;4.10;;;2.63;;
15151;SDS011;7676;50.900;6.234;2022-08-07T06:16:26;5.13;;;2.97;;
15151;SDS011;7676;50.900;6.234;2022-08-07T06:21:36;3.67;;;3.13;;
15151;SDS011;7676;50.900;6.234;2022-08-07T06:26:58;5.50;;;3.40;;
15151;SDS011;7676;50.900;6.234;2022-08-07T06:32:05;3.80;;;3.27;;
15151;SDS011;7676;50.900;6.234;2022-08-07T06:37:08;5.07;;;3.20;;
15151;SDS011;7676;50.900;6.234;2022-08-07T06:42:26;6.93;;;3.80;;
15151;SDS011;7676;50.900;6.234;2022-08-07T06:47:56;3.77;;;2.77;;
15151;SDS011;7676;50.900;6.234;2022-08-07T06:53:07;4.23;;;3.03;;
15151;SDS011;7676;50.900;6.234;2022-08-07T06:58:35;3.80;;;3.20;;
15151;SDS011;7676;50.900;6.234;2022-08-07T07:03:44;3.50;;;3.03;;
15151;SDS011;7676;50.900;6.234;2022-08-07T07:14:19;4.63;;;3.03;;
15151;SDS011;7676;50.900;6.234;2022-08-07T07:19:29;3.77;;;3.27;;
15151;SDS011;7676;50.900;6.234;2022-08-07T07:24:55;4.60;;;3.50;;
15151;SDS011;7676;50.900;6.234;2022-08-07T07:30:23;4.83;;;3.40;;
15151;SDS011;7676;50.900;6.234;2022-08-07T07:35:40;4.27;;;2.90;;
15151;SDS011;7676;50.900;6.234;2022-08-07T07:41:06;3.47;;;3.17;;
15151;SDS011;7676;50.900;6.234;2022-08-07T07:46:10;3.90;;;3.13;;
15151;SDS011;7676;50.900;6.234;2022-08-07T07:51:35;3.00;;;1.83;;
15151;SDS011;7676;50.900;6.234;2022-08-07T07:56:58;2.50;;;1.83;;
15151;SDS011;7676;50.900;6.234;2022-08-07T08:02:04;2.50;;;1.83;;
15151;SDS011;7676;50.900;6.234;2022-08-07T08:07:12;2.77;;;1.73;;
15151;SDS011;7676;50.900;6.234;2022-08-07T08:12:21;2.93;;;1.90;;
15151;SDS011;7676;50.900;6.234;2022-08-07T08:17:43;2.63;;;1.50;;
15151;SDS011;7676;50.900;6.234;2022-08-07T08:22:59;3.13;;;1.67;;
15151;SDS011;7676;50.900;6.234;2022-08-07T08:28:28;2.63;;;1.27;;
15151;SDS011;7676;50.900;6.234;2022-08-07T08:33:39;2.17;;;1.40;;
15151;SDS011;7676;50.900;6.234;2022-08-07T08:38:50;1.97;;;1.50;;
15151;SDS011;7676;50.900;6.234;2022-08-07T08:55:09;1.50;;;1.40;;
15151;SDS011;7676;50.900;6.234;2022-08-07T09:00:45;2.03;;;1.03;;
15151;SDS011;7676;50.900;6.234;2022-08-07T09:06:04;1.30;;;0.77;;
15151;SDS011;7676;50.900;6.234;2022-08-07T09:11:14;1.03;;;0.90;;
15151;SDS011;7676;50.900;6.234;2022-08-07T09:27:43;0.50;;;0.50;;
15151;SDS011;7676;50.900;6.234;2022-08-07T09:44:47;0.90;;;0.50;;
15151;SDS011;7676;50.900;6.234;2022-08-07T09:50:24;1.20;;;0.67;;
15151;SDS011;7676;50.900;6.234;2022-08-07T10:01:07;1.33;;;0.70;;
15151;SDS011;7676;50.900;6.234;2022-08-07T10:06:45;2.37;;;0.87;;
15151;SDS011;7676;50.900;6.234;2022-08-07T10:23:28;0.70;;;0.50;;
15151;SDS011;7676;50.900;6.234;2022-08-07T10:39:45;1.20;;;0.60;;
15151;SDS011;7676;50.900;6.234;2022-08-07T10:45:25;1.37;;;0.70;;
15151;SDS011;7676;50.900;6.234;2022-08-07T10:50:53;0.80;;;0.60;;
15151;SDS011;7676;50.900;6.234;2022-08-07T10:56:03;1.23;;;0.70;;
15151;SDS011;7676;50.900;6.234;2022-08-07T11:01:20;0.60;;;0.50;;
15151;SDS011;7676;50.900;6.234;2022-08-07T11:07:02;1.17;;;0.73;;
15151;SDS011;7676;50.900;6.234;2022-08-07T11:12:51;1.80;;;0.73;;
15151;SDS011;7676;50.900;6.234;2022-08-07T11:18:41;1.67;;;0.77;;
15151;SDS011;7676;50.900;6.234;2022-08-07T11:39:54;1.10;;;0.53;;
15151;SDS011;7676;50.900;6.234;2022-08-07T11:50:15;2.07;;;0.50;;
15151;SDS011;7676;50.900;6.234;2022-08-07T12:01:31;1.00;;;0.50;;
15151;SDS011;7676;50.900;6.234;2022-08-07T12:07:05;1.70;;;0.57;;
15151;SDS011;7676;50.900;6.234;2022-08-07T12:12:32;1.63;;;0.60;;
15151;SDS011;7676;50.900;6.234;2022-08-07T12:17:39;2.13;;;0.60;;
15151;SDS011;7676;50.900;6.234;2022-08-07T12:23:11;1.17;;;0.53;;
15151;SDS011;7676;50.900;6.234;2022-08-07T12:34:05;0.40;;;0.40;;
15151;SDS011;7676;50.900;6.234;2022-08-07T12:39:12;1.07;;;0.53;;
15151;SDS011;7676;50.900;6.234;2022-08-07T12:44:37;1.23;;;0.50;;
15151;SDS011;7676;50.900;6.234;2022-08-07T12:49:51;1.10;;;0.50;;
15151;SDS011;7676;50.900;6.234;2022-08-07T12:55:45;2.20;;;0.47;;
15151;SDS011;7676;50.900;6.234;2022-08-07T13:23:30;0.70;;;0.70;;
15151;SDS011;7676;50.900;6.234;2022-08-07T13:29:03;0.93;;;0.63;;
15151;SDS011;7676;50.900;6.234;2022-08-07T13:39:44;0.73;;;0.60;;
15151;SDS011;7676;50.900;6.234;2022-08-07T13:45:17;2.23;;;0.60;;
15151;SDS011;7676;50.900;6.234;2022-08-07T13:50:42;2.10;;;0.70;;
15151;SDS011;7676;50.900;6.234;2022-08-07T13:56:02;1.10;;;0.70;;
15151;SDS011;7676;50.900;6.234;2022-08-07T14:01:14;1.77;;;1.00;;
15151;SDS011;7676;50.900;6.234;2022-08-07T14:06:23;0.70;;;0.70;;
15151;SDS011;7676;50.900;6.234;2022-08-07T14:11:35;1.13;;;0.73;;
15151;SDS011;7676;50.900;6.234;2022-08-07T14:17:02;1.77;;;0.90;;
15151;SDS011;7676;50.900;6.234;2022-08-07T14:22:29;1.43;;;0.90;;
15151;SDS011;7676;50.900;6.234;2022-08-07T14:27:37;1.60;;;0.90;;
15151;SDS011;7676;50.900;6.234;2022-08-07T14:33:02;4.43;;;1.40;;
15151;SDS011;7676;50.900;6.234;2022-08-07T14:38:07;2.00;;;1.23;;
15151;SDS011;7676;50.900;6.234;2022-08-07T14:43:37;2.20;;;1.33;;
15151;SDS011;7676;50.900;6.234;2022-08-07T14:49:00;2.13;;;1.20;;
15151;SDS011;7676;50.900;6.234;2022-08-07T14:54:28;3.47;;;1.67;;
15151;SDS011;7676;50.900;6.234;2022-08-07T14:59:36;2.10;;;1.33;;
15151;SDS011;7676;50.900;6.234;2022-08-07T15:05:02;1.87;;;1.50;;
15151;SDS011;7676;50.900;6.234;2022-08-07T15:10:22;1.90;;;1.40;;
15151;SDS011;7676;50.900;6.234;2022-08-07T15:20:39;1.77;;;1.10;;
15151;SDS011;7676;50.900;6.234;2022-08-07T15:25:57;1.83;;;1.10;;
15151;SDS011;7676;50.900;6.234;2022-08-07T15:31:03;2.13;;;1.20;;
15151;SDS011;7676;50.900;6.234;2022-08-07T15:36:08;1.57;;;1.00;;
15151;SDS011;7676;50.900;6.234;2022-08-07T15:41:14;1.87;;;1.10;;
15151;SDS011;7676;50.900;6.234;2022-08-07T15:46:38;2.00;;;1.00;;
15151;SDS011;7676;50.900;6.234;2022-08-07T15:52:03;1.67;;;1.00;;
15151;SDS011;7676;50.900;6.234;2022-08-07T15:57:19;1.30;;;1.20;;
15151;SDS011;7676;50.900;6.234;2022-08-07T16:02:42;1.43;;;1.20;;
15151;SDS011;7676;50.900;6.234;2022-08-07T16:07:49;1.40;;;1.00;;
15151;SDS011;7676;50.900;6.234;2022-08-07T16:19:43;1.73;;;1.00;;
15151;SDS011;7676;50.900;6.234;2022-08-07T16:24:24;1.43;;;1.07;;
15151;SDS011;7676;50.900;6.234;2022-08-07T16:29:52;3.50;;;1.30;;
15151;SDS011;7676;50.900;6.234;2022-08-07T16:35:35;2.20;;;1.07;;
15151;SDS011;7676;50.900;6.234;2022-08-07T16:57:44;1.20;;;1.00;;
15151;SDS011;7676;50.900;6.234;2022-08-07T17:03:12;1.40;;;1.10;;
15151;SDS011;7676;50.900;6.234;2022-08-07T17:08:31;2.47;;;1.03;;
15151;SDS011;7676;50.900;6.234;2022-08-07T17:14:22;1.70;;;1.07;;
15151;SDS011;7676;50.900;6.234;2022-08-07T17:30:16;1.57;;;0.83;;
15151;SDS011;7676;50.900;6.234;2022-08-07T17:35:34;1.87;;;1.30;;
15151;SDS011;7676;50.900;6.234;2022-08-07T17:41:06;1.30;;;1.03;;
15151;SDS011;7676;50.900;6.234;2022-08-07T17:46:36;1.90;;;1.07;;
15151;SDS011;7676;50.900;6.234;2022-08-07T17:52:12;1.50;;;1.37;;
15151;SDS011;7676;50.900;6.234;2022-08-07T17:57:37;2.20;;;1.60;;
15151;SDS011;7676;50.900;6.234;2022-08-07T18:03:04;1.50;;;1.00;;
15151;SDS011;7676;50.900;6.234;2022-08-07T18:08:24;1.90;;;1.30;;
15151;SDS011;7676;50.900;6.234;2022-08-07T18:13:38;1.20;;;1.10;;
15151;SDS011;7676;50.900;6.234;2022-08-07T18:24:47;2.47;;;1.30;;
15151;SDS011;7676;50.900;6.234;2022-08-07T18:30:04;1.50;;;0.93;;
15151;SDS011;7676;50.900;6.234;2022-08-07T18:46:36;3.60;;;2.10;;
15151;SDS011;7676;50.900;6.234;2022-08-07T18:57:37;2.57;;;1.13;;
15151;SDS011;7676;50.900;6.234;2022-08-07T19:20:26;1.07;;;0.97;;
15151;SDS011;7676;50.900;6.234;2022-08-07T19:26:11;1.30;;;1.20;;
15151;SDS011;7676;50.900;6.234;2022-08-07T19:31:31;2.37;;;1.23;;
15151;SDS011;7676;50.900;6.234;2022-08-07T19:36:58;2.20;;;1.17;;
15151;SDS011;7676;50.900;6.234;2022-08-07T19:42:18;1.63;;;1.20;;
15151;SDS011;7676;50.900;6.234;2022-08-07T19:47:27;2.17;;;1.20;;
15151;SDS011;7676;50.900;6.234;2022-08-07T19:52:38;1.67;;;1.50;;
15151;SDS011;7676;50.900;6.234;2022-08-07T19:57:43;1.67;;;1.27;;
15151;SDS011;7676;50.900;6.234;2022-08-07T20:03:13;1.70;;;1.47;;
15151;SDS011;7676;50.900;6.234;2022-08-07T20:08:37;1.50;;;1.40;;
15151;SDS011;7676;50.900;6.234;2022-08-07T20:13:51;1.60;;;1.50;;
15151;SDS011;7676;50.900;6.234;2022-08-07T20:19:05;1.50;;;1.40;;
15151;SDS011;7676;50.900;6.234;2022-08-07T20:24:12;2.83;;;1.50;;
15151;SDS011;7676;50.900;6.234;2022-08-07T20:29:24;1.83;;;1.60;;
15151;SDS011;7676;50.900;6.234;2022-08-07T20:34:50;1.77;;;1.67;;
15151;SDS011;7676;50.900;6.234;2022-08-07T20:40:08;1.87;;;1.50;;
15151;SDS011;7676;50.900;6.234;2022-08-07T20:45:32;2.23;;;1.50;;
15151;SDS011;7676;50.900;6.234;2022-08-07T20:50:56;1.50;;;1.37;;
15151;SDS011;7676;50.900;6.234;2022-08-07T20:56:02;1.73;;;1.63;;
15151;SDS011;7676;50.900;6.234;2022-08-07T21:01:12;3.03;;;1.67;;
15151;SDS011;7676;50.900;6.234;2022-08-07T21:06:21;1.60;;;1.50;;
15151;SDS011;7676;50.900;6.234;2022-08-07T21:11:33;1.50;;;1.40;;
15151;SDS011;7676;50.900;6.234;2022-08-07T21:16:53;1.73;;;1.60;;
15151;SDS011;7676;50.900;6.234;2022-08-07T21:22:20;2.20;;;1.73;;
15151;SDS011;7676;50.900;6.234;2022-08-07T21:33:02;2.30;;;2.10;;
15151;SDS011;7676;50.900;6.234;2022-08-07T21:38:34;3.53;;;2.50;;
15151;SDS011;7676;50.900;6.234;2022-08-07T21:43:55;3.97;;;2.80;;
15151;SDS011;7676;50.900;6.234;2022-08-07T21:49:16;2.67;;;2.10;;
15151;SDS011;7676;50.900;6.234;2022-08-07T21:59:55;2.90;;;2.30;;
15151;SDS011;7676;50.900;6.234;2022-08-07T22:05:18;2.73;;;2.20;;
15151;SDS011;7676;50.900;6.234;2022-08-07T22:10:43;2.30;;;2.10;;
15151;SDS011;7676;50.900;6.234;2022-08-07T22:15:58;2.90;;;2.13;;
15151;SDS011;7676;50.900;6.234;2022-08-07T22:21:25;3.33;;;2.40;;
15151;SDS011;7676;50.900;6.234;2022-08-07T22:27:03;2.60;;;2.40;;
15151;SDS011;7676;50.900;6.234;2022-08-07T22:32:23;2.60;;;2.40;;
15151;SDS011;7676;50.900;6.234;2022-08-07T22:38:02;3.87;;;2.37;;
15151;SDS011;7676;50.900;6.234;2022-08-07T22:43:11;2.83;;;2.47;;
15151;SDS011;7676;50.900;6.234;2022-08-07T22:48:22;3.80;;;2.67;;
15151;SDS011;7676;50.900;6.234;2022-08-07T23:00:38;4.63;;;3.23;;
15151;SDS011;7676;50.900;6.234;2022-08-07T23:16:52;2.50;;;2.30;;
15151;SDS011;7676;50.900;6.234;2022-08-07T23:27:28;4.73;;;3.33;;
15151;SDS011;7676;50.900;6.234;2022-08-07T23:33:07;3.53;;;2.90;;
15151;SDS011;7676;50.900;6.234;2022-08-07T23:44:12;2.43;;;2.23;;
